createdAt,value
2019-01-20T00:00:03.427Z,9.77
2019-01-20T00:02:31.679Z,9.67
2019-01-20T00:04:59.787Z,8.90
2019-01-20T00:07:27.709Z,8.13
2019-01-20T00:09:55.671Z,7.17
2019-01-20T00:12:23.566Z,6.80
2019-01-20T00:14:51.533Z,7.17
2019-01-20T00:17:19.457Z,8.03
2019-01-20T00:19:47.533Z,6.77
2019-01-20T00:22:15.559Z,7.50
2019-01-20T00:24:43.402Z,6.27
2019-01-20T00:27:11.385Z,7.43
2019-01-20T00:29:39.668Z,6.83
2019-01-20T00:32:07.718Z,8.07
2019-01-20T00:34:35.710Z,7.27
2019-01-20T00:37:04.501Z,7.47
2019-01-20T00:39:32.549Z,6.70
2019-01-20T00:42:00.633Z,8.10
2019-01-20T00:44:28.604Z,7.07
2019-01-20T00:46:56.775Z,6.17
2019-01-20T00:49:24.800Z,6.63
2019-01-20T00:51:52.863Z,5.87
2019-01-20T00:54:20.996Z,6.43
2019-01-20T00:56:48.982Z,6.33
2019-01-20T00:59:17.169Z,6.13
2019-01-20T01:01:45.406Z,5.47
2019-01-20T01:04:13.581Z,5.30
2019-01-20T01:06:41.769Z,4.90
2019-01-20T01:09:09.902Z,6.17
2019-01-20T01:11:38.100Z,4.53
2019-01-20T01:14:06.348Z,5.20
2019-01-20T01:16:34.481Z,5.77
2019-01-20T01:19:02.550Z,6.53
2019-01-20T01:21:31.061Z,5.50
2019-01-20T01:23:59.013Z,5.57
2019-01-20T01:26:27.019Z,6.43
2019-01-20T01:28:55.283Z,6.33
2019-01-20T01:31:23.458Z,7.50
2019-01-20T01:33:51.420Z,7.80
2019-01-20T01:36:19.541Z,5.83
2019-01-20T01:38:47.619Z,6.03
2019-01-20T01:41:15.582Z,7.07
2019-01-20T01:43:43.522Z,6.37
2019-01-20T01:46:12.857Z,6.10
2019-01-20T01:48:40.759Z,6.97
2019-01-20T01:51:10.614Z,7.00
2019-01-20T01:53:38.644Z,8.20
2019-01-20T01:56:06.735Z,7.80
2019-01-20T01:58:34.663Z,6.97
2019-01-20T02:01:02.784Z,7.07
2019-01-20T02:03:30.889Z,7.67
2019-01-20T02:05:58.819Z,6.33
2019-01-20T02:08:26.697Z,6.10
2019-01-20T02:10:54.765Z,6.93
2019-01-20T02:13:22.585Z,6.73
2019-01-20T02:15:50.465Z,7.17
2019-01-20T02:18:18.513Z,7.30
2019-01-20T02:20:46.691Z,6.63
2019-01-20T02:23:14.726Z,7.83
2019-01-20T02:25:42.931Z,7.83
2019-01-20T02:28:10.972Z,6.77
2019-01-20T02:30:39.127Z,9.70
2019-01-20T02:33:07.028Z,7.63
2019-01-20T02:35:34.875Z,6.60
2019-01-20T02:38:02.940Z,7.77
2019-01-20T02:40:30.740Z,5.87
2019-01-20T02:42:58.741Z,5.73
2019-01-20T02:45:26.671Z,5.27
2019-01-20T02:47:54.635Z,5.73
2019-01-20T02:50:22.852Z,6.10
2019-01-20T02:52:50.988Z,5.97
2019-01-20T02:55:19.133Z,6.53
2019-01-20T02:57:47.214Z,6.17
2019-01-20T03:00:20.408Z,5.13
2019-01-20T03:02:48.735Z,5.67
2019-01-20T03:05:17.395Z,6.00
2019-01-20T03:07:45.418Z,6.90
2019-01-20T03:10:13.976Z,5.40
2019-01-20T03:12:42.065Z,5.77
2019-01-20T03:15:10.230Z,4.67
2019-01-20T03:17:38.145Z,8.43
2019-01-20T03:20:08.444Z,5.00
2019-01-20T03:22:36.373Z,5.63
2019-01-20T03:25:05.335Z,5.70
2019-01-20T03:27:33.476Z,5.47
2019-01-20T03:30:01.470Z,5.23
2019-01-20T03:32:29.460Z,4.97
2019-01-20T03:34:57.510Z,5.40
2019-01-20T03:37:25.414Z,5.30
2019-01-20T03:39:53.434Z,8.90
2019-01-20T03:42:21.928Z,5.97
2019-01-20T03:44:49.964Z,5.50
2019-01-20T03:47:17.950Z,5.50
2019-01-20T03:49:45.867Z,5.53
2019-01-20T03:52:13.810Z,5.40
2019-01-20T03:54:41.777Z,5.53
2019-01-20T03:57:10.120Z,5.40
2019-01-20T03:59:38.230Z,5.77
2019-01-20T04:02:06.112Z,6.40
2019-01-20T04:04:34.129Z,5.80
2019-01-20T04:07:02.410Z,5.77
2019-01-20T04:09:30.293Z,7.43
2019-01-20T04:11:58.253Z,6.00
2019-01-20T04:14:26.130Z,5.83
2019-01-20T04:16:54.077Z,5.97
2019-01-20T04:19:21.974Z,6.73
2019-01-20T04:21:49.834Z,5.67
2019-01-20T04:24:17.852Z,5.83
2019-01-20T04:26:45.864Z,5.83
2019-01-20T04:29:13.848Z,5.07
2019-01-20T04:31:41.798Z,5.63
2019-01-20T04:34:09.742Z,5.80
2019-01-20T04:36:37.833Z,5.50
2019-01-20T04:39:06.988Z,5.97
2019-01-20T04:41:35.318Z,5.40
2019-01-20T04:44:03.517Z,5.53
2019-01-20T04:46:31.361Z,5.77
2019-01-20T04:48:59.328Z,5.97
2019-01-20T04:51:27.298Z,5.30
2019-01-20T04:53:55.516Z,6.57
2019-01-20T04:56:23.639Z,6.43
2019-01-20T04:58:51.580Z,6.97
2019-01-20T05:01:19.490Z,5.57
2019-01-20T05:03:47.579Z,5.70
2019-01-20T05:06:15.616Z,5.40
2019-01-20T05:08:43.547Z,5.43
2019-01-20T05:11:22.027Z,4.87
2019-01-20T05:13:49.976Z,5.40
2019-01-20T05:16:17.904Z,4.40
2019-01-20T05:18:45.941Z,4.53
2019-01-20T05:21:14.044Z,5.07
2019-01-20T05:23:41.990Z,5.20
2019-01-20T05:26:11.365Z,6.43
2019-01-20T05:28:39.315Z,5.20
2019-01-20T05:31:07.305Z,5.30
2019-01-20T05:33:35.308Z,5.20
2019-01-20T05:36:03.675Z,4.87
2019-01-20T05:38:31.629Z,5.33
2019-01-20T05:40:59.546Z,5.07
2019-01-20T05:43:27.498Z,5.07
2019-01-20T05:45:55.644Z,5.43
2019-01-20T05:48:23.648Z,5.17
2019-01-20T05:50:51.545Z,5.50
2019-01-20T05:53:19.855Z,4.67
2019-01-20T05:55:47.752Z,5.40
2019-01-20T05:58:15.690Z,5.93
2019-01-20T06:00:44.028Z,6.53
2019-01-20T06:03:11.902Z,13.60
2019-01-20T06:05:39.808Z,41.60
2019-01-20T06:08:08.188Z,42.80
2019-01-20T06:10:36.344Z,25.70
2019-01-20T06:13:04.597Z,16.43
2019-01-20T06:15:32.695Z,11.53
2019-01-20T06:18:00.621Z,9.67
2019-01-20T06:20:28.561Z,8.63
2019-01-20T06:22:56.671Z,10.43
2019-01-20T06:25:24.654Z,11.10
2019-01-20T06:27:52.551Z,8.67
2019-01-20T06:30:31.285Z,7.07
2019-01-20T06:32:59.162Z,6.40
2019-01-20T06:35:27.613Z,7.80
2019-01-20T06:37:55.600Z,6.37
2019-01-20T06:40:23.612Z,7.13
2019-01-20T06:42:51.716Z,7.17
2019-01-20T06:45:19.993Z,7.27
2019-01-20T06:47:48.092Z,9.70
2019-01-20T06:50:16.846Z,5.37
2019-01-20T06:52:44.749Z,4.90
2019-01-20T06:55:13.376Z,4.30
2019-01-20T06:57:41.819Z,4.30
2019-01-20T07:00:12.881Z,4.90
2019-01-20T07:02:40.802Z,4.87
2019-01-20T07:05:09.707Z,6.47
2019-01-20T07:07:37.665Z,6.53
2019-01-20T07:10:06.185Z,5.30
2019-01-20T07:12:34.171Z,6.10
2019-01-20T07:15:02.104Z,5.70
2019-01-20T07:17:30.005Z,13.03
2019-01-20T07:19:57.987Z,71.83
2019-01-20T07:22:25.924Z,88.70
2019-01-20T07:24:54.250Z,70.53
2019-01-20T07:27:22.316Z,16.80
2019-01-20T07:29:50.221Z,11.97
2019-01-20T07:32:18.303Z,10.80
2019-01-20T07:34:46.165Z,9.40
2019-01-20T07:37:14.180Z,9.27
2019-01-20T07:39:42.170Z,9.13
2019-01-20T07:42:10.246Z,8.77
2019-01-20T07:44:38.260Z,7.67
2019-01-20T07:47:06.297Z,7.93
2019-01-20T07:49:34.213Z,8.90
2019-01-20T07:52:02.177Z,7.90
2019-01-20T07:54:30.184Z,8.37
2019-01-20T07:56:58.267Z,7.93
2019-01-20T07:59:26.116Z,7.87
2019-01-20T08:01:53.954Z,8.37
2019-01-20T08:04:21.971Z,8.63
2019-01-20T08:06:50.025Z,8.23
2019-01-20T08:09:17.957Z,8.83
2019-01-20T08:11:45.908Z,9.43
2019-01-20T08:14:41.195Z,11.03
2019-01-20T08:17:08.470Z,8.70
2019-01-20T08:19:36.344Z,10.17
2019-01-20T08:22:04.650Z,8.73
2019-01-20T08:24:32.716Z,8.70
2019-01-20T08:27:00.569Z,8.87
2019-01-20T08:29:28.790Z,9.97
2019-01-20T08:31:56.696Z,9.20
2019-01-20T08:34:24.721Z,9.57
2019-01-20T08:36:52.624Z,9.97
2019-01-20T08:39:21.016Z,9.07
2019-01-20T08:41:48.995Z,8.83
2019-01-20T08:44:17.247Z,8.07
2019-01-20T08:47:21.906Z,7.73
2019-01-20T08:49:49.912Z,8.13
2019-01-20T08:52:17.896Z,7.87
2019-01-20T08:54:45.831Z,8.20
2019-01-20T08:57:13.758Z,9.73
2019-01-20T08:59:41.718Z,7.67
2019-01-20T09:02:09.838Z,7.20
2019-01-20T09:04:37.808Z,7.23
2019-01-20T09:07:05.799Z,8.53
2019-01-20T09:09:33.853Z,9.50
2019-01-20T09:12:02.230Z,9.17
2019-01-20T09:14:44.473Z,9.20
2019-01-20T09:17:12.481Z,11.67
2019-01-20T09:19:40.627Z,8.80
2019-01-20T09:22:08.615Z,8.23
2019-01-20T09:24:36.672Z,9.23
2019-01-20T09:27:04.577Z,11.00
2019-01-20T09:29:32.577Z,9.07
2019-01-20T09:32:00.524Z,7.33
2019-01-20T09:34:28.440Z,7.40
2019-01-20T09:36:56.357Z,11.67
2019-01-20T09:39:24.226Z,12.33
2019-01-20T09:41:52.160Z,12.63
2019-01-20T09:44:20.302Z,14.23
2019-01-20T09:46:48.465Z,15.80
2019-01-20T09:49:16.318Z,15.30
2019-01-20T09:51:44.863Z,13.67
2019-01-20T09:54:12.955Z,13.00
2019-01-20T09:56:40.916Z,15.23
2019-01-20T09:59:08.778Z,15.40
2019-01-20T10:01:37.034Z,15.57
2019-01-20T10:04:05.050Z,18.87
2019-01-20T10:06:32.924Z,22.30
2019-01-20T10:09:00.880Z,27.23
2019-01-20T10:11:28.983Z,29.93
2019-01-20T10:13:57.046Z,33.30
2019-01-20T10:16:25.278Z,34.13
2019-01-20T10:18:53.798Z,31.03
2019-01-20T10:21:21.723Z,32.50
2019-01-20T10:23:49.767Z,30.63
2019-01-20T10:26:18.001Z,25.17
2019-01-20T10:28:46.073Z,24.30
2019-01-20T10:31:13.972Z,20.63
2019-01-20T10:33:41.830Z,21.80
2019-01-20T10:36:11.319Z,23.63
2019-01-20T10:38:39.177Z,20.30
2019-01-20T10:41:07.035Z,20.90
2019-01-20T10:43:35.132Z,18.30
2019-01-20T10:46:03.154Z,14.53
2019-01-20T10:48:31.182Z,13.23
2019-01-20T10:50:59.100Z,12.57
2019-01-20T10:53:27.035Z,12.20
2019-01-20T10:55:55.080Z,13.23
2019-01-20T10:58:23.099Z,12.40
2019-01-20T11:00:51.032Z,13.77
2019-01-20T11:03:18.870Z,15.57
2019-01-20T11:05:46.841Z,19.23
2019-01-20T11:08:14.792Z,18.90
2019-01-20T11:10:42.796Z,21.87
2019-01-20T11:13:10.756Z,19.57
2019-01-20T11:15:38.642Z,16.43
2019-01-20T11:18:06.783Z,14.90
2019-01-20T11:20:34.668Z,15.20
2019-01-20T11:23:02.640Z,16.07
2019-01-20T11:25:33.162Z,19.07
2019-01-20T11:28:01.267Z,16.20
2019-01-20T11:30:29.381Z,20.77
2019-01-20T11:32:57.540Z,22.90
2019-01-20T11:35:25.429Z,19.87
2019-01-20T11:37:53.321Z,15.40
2019-01-20T11:40:21.573Z,10.93
2019-01-20T11:42:49.461Z,7.17
2019-01-20T11:45:22.851Z,10.63
2019-01-20T11:47:50.754Z,9.77
2019-01-20T11:50:19.133Z,8.83
2019-01-20T11:52:47.195Z,8.33
2019-01-20T11:55:17.691Z,7.83
2019-01-20T11:57:45.604Z,10.83
2019-01-20T12:00:21.857Z,8.03
2019-01-20T12:02:50.128Z,6.93
2019-01-20T12:05:17.958Z,7.17
2019-01-20T12:07:46.115Z,6.13
2019-01-20T12:10:14.303Z,5.27
2019-01-20T12:12:45.259Z,5.30
2019-01-20T12:15:29.753Z,6.57
2019-01-20T12:17:57.676Z,5.97
2019-01-20T12:20:25.612Z,6.47
2019-01-20T12:22:53.587Z,7.53
2019-01-20T12:25:21.504Z,6.40
2019-01-20T12:27:49.841Z,7.70
2019-01-20T12:30:21.547Z,7.33
2019-01-20T12:32:49.916Z,6.57
2019-01-20T12:35:18.669Z,7.87
2019-01-20T12:37:46.649Z,7.90
2019-01-20T12:40:18.383Z,6.10
2019-01-20T12:42:46.823Z,5.93
2019-01-20T12:45:15.008Z,7.13
2019-01-20T12:47:43.025Z,7.40
2019-01-20T12:50:12.567Z,5.27
2019-01-20T12:52:40.533Z,6.73
2019-01-20T12:55:08.800Z,7.40
2019-01-20T12:57:36.634Z,5.77
2019-01-20T13:00:05.807Z,6.73
2019-01-20T13:02:33.821Z,5.73
2019-01-20T13:05:01.843Z,6.90
2019-01-20T13:07:29.758Z,8.13
2019-01-20T13:09:57.629Z,5.90
2019-01-20T13:12:25.480Z,5.90
2019-01-20T13:15:13.723Z,7.10
2019-01-20T13:17:41.671Z,6.23
2019-01-20T13:20:12.467Z,6.57
2019-01-20T13:22:40.596Z,8.17
2019-01-20T13:25:10.615Z,6.63
2019-01-20T13:27:38.593Z,6.10
2019-01-20T13:30:09.430Z,6.53
2019-01-20T13:32:37.282Z,6.83
2019-01-20T13:35:06.296Z,6.83
2019-01-20T13:37:34.232Z,5.47
2019-01-20T13:40:02.309Z,6.40
2019-01-20T13:42:30.531Z,10.07
2019-01-20T13:44:58.423Z,13.27
2019-01-20T13:47:26.333Z,6.83
2019-01-20T13:49:54.288Z,6.40
2019-01-20T13:52:22.292Z,7.37
2019-01-20T13:54:50.353Z,6.80
2019-01-20T13:57:18.467Z,8.70
2019-01-20T13:59:46.459Z,7.30
2019-01-20T14:02:14.436Z,5.43
2019-01-20T14:04:42.746Z,4.20
2019-01-20T14:07:10.701Z,5.50
2019-01-20T14:09:38.708Z,6.17
2019-01-20T14:12:06.779Z,11.50
2019-01-20T14:15:04.033Z,14.30
2019-01-20T14:17:31.784Z,40.43
2019-01-20T14:19:59.794Z,39.13
2019-01-20T14:22:27.764Z,26.87
2019-01-20T14:24:56.109Z,21.73
2019-01-20T14:27:24.054Z,19.83
2019-01-20T14:29:51.964Z,27.60
2019-01-20T14:32:19.987Z,27.40
2019-01-20T14:34:47.980Z,18.63
2019-01-20T14:37:15.790Z,16.60
2019-01-20T14:39:43.641Z,17.87
2019-01-20T14:42:12.444Z,14.37
2019-01-20T14:44:41.793Z,15.37
2019-01-20T14:47:09.907Z,13.43
2019-01-20T14:49:38.073Z,11.87
2019-01-20T14:52:05.874Z,10.57
2019-01-20T14:54:33.987Z,12.70
2019-01-20T14:57:01.989Z,11.07
2019-01-20T14:59:30.020Z,8.77
2019-01-20T15:01:58.039Z,8.37
2019-01-20T15:04:26.374Z,9.80
2019-01-20T15:07:00.349Z,10.23
2019-01-20T15:09:28.263Z,5.50
2019-01-20T15:11:56.153Z,10.33
2019-01-20T15:14:36.617Z,10.20
2019-01-20T15:17:04.729Z,42.47
2019-01-20T15:19:32.632Z,14.30
2019-01-20T15:22:00.658Z,12.17
2019-01-20T15:24:31.342Z,11.20
2019-01-20T15:26:58.466Z,13.90
2019-01-20T15:29:26.474Z,13.03
2019-01-20T15:31:54.322Z,9.77
2019-01-20T15:34:22.261Z,8.53
2019-01-20T15:36:50.349Z,23.27
2019-01-20T15:39:18.268Z,33.97
2019-01-20T15:41:46.344Z,34.87
2019-01-20T15:44:14.605Z,20.47
2019-01-20T15:46:42.532Z,17.83
2019-01-20T15:49:10.469Z,13.60
2019-01-20T15:51:38.349Z,12.70
2019-01-20T15:54:06.239Z,13.07
2019-01-20T15:56:34.235Z,10.53
2019-01-20T15:59:02.290Z,15.43
2019-01-20T16:01:30.154Z,12.20
2019-01-20T16:03:58.107Z,11.67
2019-01-20T16:06:26.140Z,9.83
2019-01-20T16:08:53.944Z,13.10
2019-01-20T16:11:24.141Z,10.00
2019-01-20T16:13:52.193Z,8.33
2019-01-20T16:16:25.043Z,12.97
2019-01-20T16:18:53.149Z,14.20
2019-01-20T16:21:21.025Z,13.40
2019-01-20T16:23:48.924Z,11.03
2019-01-20T16:26:16.852Z,14.17
2019-01-20T16:28:44.987Z,19.10
2019-01-20T16:31:13.453Z,18.93
2019-01-20T16:33:41.638Z,10.53
2019-01-20T16:36:09.519Z,12.73
2019-01-20T16:38:37.488Z,12.53
2019-01-20T16:41:05.559Z,14.30
2019-01-20T16:43:33.549Z,13.60
2019-01-20T16:46:01.612Z,11.20
2019-01-20T16:48:29.652Z,9.83
2019-01-20T16:50:57.598Z,8.13
2019-01-20T16:53:25.595Z,9.57
2019-01-20T16:55:53.543Z,15.27
2019-01-20T16:58:21.511Z,21.53
2019-01-20T17:00:49.628Z,24.37
2019-01-20T17:03:17.548Z,27.67
2019-01-20T17:05:45.471Z,25.17
2019-01-20T17:08:13.563Z,18.10
2019-01-20T17:10:42.364Z,12.23
2019-01-20T17:13:11.060Z,10.03
2019-01-20T17:16:03.791Z,13.83
2019-01-20T17:18:32.028Z,23.27
2019-01-20T17:21:00.086Z,17.50
2019-01-20T17:23:28.065Z,14.07
2019-01-20T17:25:56.011Z,11.30
2019-01-20T17:28:23.919Z,11.53
2019-01-20T17:30:51.880Z,9.23
2019-01-20T17:33:19.826Z,8.33
2019-01-20T17:35:47.887Z,8.67
2019-01-20T17:38:15.864Z,10.03
2019-01-20T17:40:43.957Z,11.37
2019-01-20T17:43:11.996Z,14.93
2019-01-20T17:45:47.626Z,20.07
2019-01-20T17:48:12.535Z,18.50
2019-01-20T17:50:41.430Z,23.40
2019-01-20T17:53:10.201Z,22.57
2019-01-20T17:56:37.668Z,19.73
2019-01-20T17:59:03.611Z,20.10
2019-01-20T18:01:31.507Z,18.87
2019-01-20T18:03:59.453Z,13.40
2019-01-20T18:06:27.499Z,12.00
2019-01-20T18:08:55.416Z,9.70
2019-01-20T18:11:23.325Z,10.33
2019-01-20T18:13:51.429Z,10.17
2019-01-20T18:16:46.428Z,11.33
2019-01-20T18:19:14.452Z,15.03
2019-01-20T18:21:42.415Z,11.33
2019-01-20T18:24:10.501Z,10.63
2019-01-20T18:26:38.496Z,10.30
2019-01-20T18:29:06.533Z,11.93
2019-01-20T18:31:34.524Z,12.73
2019-01-20T18:34:02.503Z,14.57
2019-01-20T18:36:31.381Z,11.93
2019-01-20T18:38:59.388Z,14.23
2019-01-20T18:41:27.409Z,14.10
2019-01-20T18:43:55.341Z,14.43
2019-01-20T18:46:23.282Z,12.50
2019-01-20T18:48:51.308Z,10.23
2019-01-20T18:51:19.302Z,8.80
2019-01-20T18:53:47.180Z,10.67
2019-01-20T18:56:18.605Z,10.60
2019-01-20T18:58:46.660Z,10.93
2019-01-20T19:01:14.695Z,17.87
2019-01-20T19:03:43.057Z,20.23
2019-01-20T19:06:14.883Z,15.23
2019-01-20T19:08:43.059Z,23.57
2019-01-20T19:11:22.778Z,14.83
2019-01-20T19:13:50.814Z,10.53
2019-01-20T19:16:43.754Z,10.93
2019-01-20T19:19:11.669Z,13.90
2019-01-20T19:21:39.711Z,12.13
2019-01-20T19:24:07.735Z,14.57
2019-01-20T19:26:35.767Z,13.93
2019-01-20T19:29:04.372Z,11.20
2019-01-20T19:31:32.279Z,11.97
2019-01-20T19:34:00.317Z,21.60
2019-01-20T19:36:28.130Z,31.57
2019-01-20T19:38:56.119Z,17.53
2019-01-20T19:41:27.924Z,11.43
2019-01-20T19:43:55.926Z,9.63
2019-01-20T19:46:23.897Z,10.10
2019-01-20T19:48:51.789Z,12.10
2019-01-20T19:51:19.812Z,10.70
2019-01-20T19:53:47.678Z,12.17
2019-01-20T19:56:15.809Z,12.67
2019-01-20T19:58:43.690Z,19.70
2019-01-20T20:01:16.757Z,12.13
2019-01-20T20:03:44.676Z,13.33
2019-01-20T20:06:14.253Z,12.23
2019-01-20T20:08:42.265Z,11.10
2019-01-20T20:11:20.034Z,12.60
2019-01-20T20:13:48.033Z,11.70
2019-01-20T20:16:41.021Z,14.27
2019-01-20T20:19:08.964Z,16.83
2019-01-20T20:21:37.023Z,14.77
2019-01-20T20:24:09.011Z,9.73
2019-01-20T20:26:37.192Z,12.90
2019-01-20T20:29:05.268Z,15.17
2019-01-20T20:31:33.260Z,12.17
2019-01-20T20:34:01.168Z,11.43
2019-01-20T20:36:29.161Z,17.63
2019-01-20T20:38:57.113Z,28.83
2019-01-20T20:41:29.799Z,17.50
2019-01-20T20:44:02.397Z,13.17
2019-01-20T20:46:30.644Z,10.90
2019-01-20T20:48:58.804Z,16.83
2019-01-20T20:51:26.955Z,19.17
2019-01-20T20:53:54.943Z,13.03
2019-01-20T20:56:22.971Z,16.53
2019-01-20T20:58:51.024Z,18.83
2019-01-20T21:01:19.749Z,29.77
2019-01-20T21:03:47.748Z,21.63
2019-01-20T21:06:15.752Z,14.23
2019-01-20T21:08:48.414Z,12.13
2019-01-20T21:11:23.268Z,14.80
2019-01-20T21:13:51.148Z,19.10
2019-01-20T21:16:41.211Z,15.10
2019-01-20T21:19:09.280Z,30.83
2019-01-20T21:21:37.391Z,39.07
2019-01-20T21:24:05.350Z,33.97
2019-01-20T21:26:57.337Z,31.63
2019-01-20T21:29:24.870Z,18.87
2019-01-20T21:32:05.168Z,18.67
2019-01-20T21:34:33.683Z,17.07
2019-01-20T21:37:02.032Z,8.37
2019-01-20T21:39:29.950Z,12.40
2019-01-20T21:41:58.000Z,11.50
2019-01-20T21:44:25.946Z,10.27
2019-01-20T21:46:54.128Z,9.30
2019-01-20T21:49:22.337Z,8.00
2019-01-20T21:51:50.183Z,8.23
2019-01-20T21:54:18.035Z,10.00
2019-01-20T21:56:46.066Z,11.73
2019-01-20T21:59:14.185Z,13.43
2019-01-20T22:01:42.063Z,14.00
2019-01-20T22:04:10.032Z,13.23
2019-01-20T22:06:37.938Z,15.10
2019-01-20T22:09:07.022Z,10.07
2019-01-20T22:11:35.110Z,10.73
2019-01-20T22:14:03.172Z,10.00
2019-01-20T22:16:52.982Z,11.03
2019-01-20T22:19:18.506Z,13.80
2019-01-20T22:21:46.511Z,14.07
2019-01-20T22:24:14.402Z,10.80
2019-01-20T22:26:42.412Z,10.17
2019-01-20T22:29:10.382Z,11.93
2019-01-20T22:31:38.394Z,12.00
2019-01-20T22:34:06.604Z,10.67
2019-01-20T22:36:34.987Z,10.00
2019-01-20T22:39:04.772Z,8.60
2019-01-20T22:41:33.301Z,8.17
2019-01-20T22:44:01.255Z,6.00
2019-01-20T22:46:29.123Z,5.17
2019-01-20T22:48:57.134Z,5.40
2019-01-20T22:51:25.051Z,5.70
2019-01-20T22:53:53.154Z,6.07
2019-01-20T22:56:21.528Z,5.87
2019-01-20T22:58:49.472Z,6.60
2019-01-20T23:01:20.728Z,5.07
2019-01-20T23:03:48.889Z,5.37
2019-01-20T23:06:16.775Z,4.53
2019-01-20T23:08:45.032Z,5.07
2019-01-20T23:11:15.455Z,4.23
2019-01-20T23:13:43.484Z,5.17
2019-01-20T23:16:13.322Z,4.83
2019-01-20T23:18:41.355Z,5.13
2019-01-20T23:21:09.420Z,5.50
2019-01-20T23:23:37.407Z,6.43
2019-01-20T23:26:05.921Z,5.13
2019-01-20T23:28:33.962Z,5.23
2019-01-20T23:31:01.948Z,5.23
2019-01-20T23:33:29.930Z,5.37
2019-01-20T23:35:57.913Z,4.70
2019-01-20T23:38:25.868Z,5.17
2019-01-20T23:40:53.802Z,5.83
2019-01-20T23:43:21.803Z,5.73
2019-01-20T23:45:49.948Z,6.03
2019-01-20T23:48:18.005Z,5.30
2019-01-20T23:50:45.911Z,5.97
2019-01-20T23:53:14.069Z,6.97
2019-01-20T23:55:42.085Z,5.70
2019-01-20T23:58:10.028Z,4.73
